createdAt,value
2018-09-30T00:03:00.649Z,96.63
2018-09-30T00:06:05.980Z,96.31
2018-09-30T00:09:10.704Z,96.26
2018-09-30T00:12:15.053Z,95.69
2018-09-30T00:15:19.580Z,95.70
2018-09-30T00:18:27.920Z,96.14
2018-09-30T00:21:32.314Z,95.65
2018-09-30T00:24:41.987Z,95.43
2018-09-30T00:27:46.358Z,95.64
2018-09-30T00:30:50.887Z,96.17
2018-09-30T00:34:00.676Z,95.44
2018-09-30T00:37:04.979Z,95.81
2018-09-30T00:40:09.512Z,96.05
2018-09-30T00:43:13.815Z,95.83
2018-09-30T00:46:18.272Z,95.40
2018-09-30T00:49:22.673Z,95.97
2018-09-30T00:52:27.071Z,95.96
2018-09-30T00:55:31.408Z,96.40
2018-09-30T00:58:35.916Z,96.81
2018-09-30T01:01:40.251Z,97.03
2018-09-30T01:04:44.560Z,97.16
2018-09-30T01:07:48.881Z,98.27
2018-09-30T01:10:53.217Z,98.49
2018-09-30T01:13:57.520Z,99.36
2018-09-30T01:17:01.935Z,100.00
2018-09-30T01:20:06.204Z,100.00
2018-09-30T01:23:10.513Z,100.00
2018-09-30T01:26:15.100Z,100.00
2018-09-30T01:29:19.426Z,100.00
2018-09-30T01:32:23.796Z,99.93
2018-09-30T01:35:28.189Z,99.21
2018-09-30T01:38:32.621Z,97.14
2018-09-30T01:41:37.123Z,97.13
2018-09-30T01:44:41.631Z,97.05
2018-09-30T01:47:46.018Z,97.38
2018-09-30T01:50:50.648Z,97.38
2018-09-30T01:53:55.154Z,97.68
2018-09-30T01:56:59.472Z,97.46
2018-09-30T02:00:03.956Z,97.48
2018-09-30T02:03:08.403Z,96.67
2018-09-30T02:06:12.745Z,96.82
2018-09-30T02:09:17.050Z,96.43
2018-09-30T02:12:21.373Z,96.09
2018-09-30T02:15:25.785Z,95.73
2018-09-30T02:18:30.139Z,95.97
2018-09-30T02:21:34.564Z,95.48
2018-09-30T02:24:39.038Z,95.12
2018-09-30T02:27:43.297Z,94.39
2018-09-30T02:30:47.547Z,94.70
2018-09-30T02:33:51.837Z,94.58
2018-09-30T02:36:56.152Z,94.25
2018-09-30T02:40:00.481Z,94.20
2018-09-30T02:43:04.801Z,94.37
2018-09-30T02:46:09.333Z,93.79
2018-09-30T02:49:13.652Z,93.92
2018-09-30T02:52:17.952Z,93.74
2018-09-30T02:55:22.233Z,94.14
2018-09-30T02:58:26.509Z,93.88
2018-09-30T03:01:30.828Z,93.75
2018-09-30T03:04:35.165Z,93.57
2018-09-30T03:07:44.748Z,94.83
2018-09-30T03:10:49.013Z,94.65
2018-09-30T03:13:53.335Z,94.78
2018-09-30T03:16:57.680Z,95.14
2018-09-30T03:20:01.996Z,95.75
2018-09-30T03:23:06.258Z,96.82
2018-09-30T03:26:10.530Z,95.99
2018-09-30T03:29:14.792Z,95.71
2018-09-30T03:32:19.077Z,95.46
2018-09-30T03:35:23.389Z,95.91
2018-09-30T03:38:27.686Z,95.91
2018-09-30T03:41:31.954Z,95.61
2018-09-30T03:44:36.235Z,95.22
2018-09-30T03:47:40.728Z,95.05
2018-09-30T03:50:45.030Z,94.07
2018-09-30T03:53:49.354Z,93.19
2018-09-30T03:56:53.747Z,92.53
2018-09-30T03:59:58.039Z,92.20
2018-09-30T04:03:02.379Z,92.03
2018-09-30T04:06:06.732Z,92.05
2018-09-30T04:09:11.209Z,91.73
2018-09-30T04:12:15.571Z,91.02
2018-09-30T04:15:19.878Z,91.41
2018-09-30T04:18:24.184Z,91.12
2018-09-30T04:21:28.528Z,91.29
2018-09-30T04:24:32.826Z,91.09
2018-09-30T04:27:37.168Z,90.99
2018-09-30T04:30:41.472Z,91.03
2018-09-30T04:33:45.817Z,90.81
2018-09-30T04:36:50.082Z,91.04
2018-09-30T04:39:54.350Z,91.20
2018-09-30T04:42:58.696Z,90.80
2018-09-30T04:46:02.985Z,90.69
2018-09-30T04:49:07.532Z,90.16
2018-09-30T04:52:11.842Z,90.49
2018-09-30T04:55:16.248Z,90.87
2018-09-30T04:58:20.501Z,90.74
2018-09-30T05:01:24.817Z,90.10
2018-09-30T05:04:29.129Z,90.89
2018-09-30T05:07:33.392Z,91.26
2018-09-30T05:10:37.673Z,91.27
2018-09-30T05:13:42.016Z,91.45
2018-09-30T05:16:46.296Z,90.92
2018-09-30T05:19:50.628Z,90.90
2018-09-30T05:22:55.733Z,91.33
2018-09-30T05:26:00.102Z,91.24
2018-09-30T05:29:04.408Z,91.32
2018-09-30T05:32:08.945Z,91.29
2018-09-30T05:35:13.262Z,92.06
2018-09-30T05:38:17.600Z,91.77
2018-09-30T05:41:22.003Z,91.61
2018-09-30T05:44:26.316Z,92.32
2018-09-30T05:47:30.643Z,91.88
2018-09-30T05:50:34.976Z,92.02
2018-09-30T05:53:39.281Z,91.95
2018-09-30T05:56:43.641Z,92.19
2018-09-30T05:59:47.923Z,91.94
2018-09-30T06:02:52.182Z,91.68
2018-09-30T06:05:56.454Z,91.80
2018-09-30T06:09:00.817Z,91.90
2018-09-30T06:12:05.110Z,91.37
2018-09-30T06:15:09.388Z,91.35
2018-09-30T06:18:13.655Z,91.43
2018-09-30T06:21:17.916Z,90.94
2018-09-30T06:24:22.207Z,91.26
2018-09-30T06:27:26.536Z,92.03
2018-09-30T06:30:30.840Z,91.65
2018-09-30T06:33:35.164Z,91.89
2018-09-30T06:36:39.522Z,92.03
2018-09-30T06:39:43.773Z,91.79
2018-09-30T06:42:48.133Z,91.84
2018-09-30T06:45:52.456Z,92.51
2018-09-30T06:48:56.707Z,92.31
2018-09-30T06:52:01.148Z,91.73
2018-09-30T06:55:05.450Z,91.97
2018-09-30T06:58:09.737Z,92.08
2018-09-30T07:01:14.115Z,92.48
2018-09-30T07:04:18.317Z,92.49
2018-09-30T07:07:22.596Z,92.71
2018-09-30T07:10:26.922Z,93.28
2018-09-30T07:13:31.243Z,93.09
2018-09-30T07:16:35.571Z,93.57
2018-09-30T07:19:39.921Z,92.76
2018-09-30T07:22:44.237Z,93.13
2018-09-30T07:25:48.528Z,93.35
2018-09-30T07:28:52.841Z,93.30
2018-09-30T07:31:57.191Z,93.47
2018-09-30T07:35:01.509Z,94.06
2018-09-30T07:38:05.782Z,93.98
2018-09-30T07:41:10.034Z,94.50
2018-09-30T07:44:14.400Z,94.73
2018-09-30T07:47:18.694Z,94.96
2018-09-30T07:50:23.007Z,95.50
2018-09-30T07:53:27.344Z,95.81
2018-09-30T07:56:31.661Z,95.52
2018-09-30T07:59:35.983Z,95.58
2018-09-30T08:02:40.302Z,95.27
2018-09-30T08:05:44.654Z,94.41
2018-09-30T08:08:49.051Z,93.55
2018-09-30T08:11:53.378Z,92.84
2018-09-30T08:14:57.695Z,92.35
2018-09-30T08:18:02.006Z,92.36
2018-09-30T08:21:06.482Z,92.25
2018-09-30T08:24:10.816Z,92.18
2018-09-30T08:27:15.094Z,92.79
2018-09-30T08:30:19.399Z,93.95
2018-09-30T08:33:23.732Z,94.35
2018-09-30T08:36:28.059Z,94.07
2018-09-30T08:39:32.306Z,94.96
2018-09-30T08:42:36.687Z,95.36
2018-09-30T08:45:40.993Z,95.74
2018-09-30T08:48:45.312Z,95.94
2018-09-30T08:51:49.660Z,96.31
2018-09-30T08:54:54.050Z,96.43
2018-09-30T08:57:58.384Z,97.10
2018-09-30T09:01:02.751Z,96.52
2018-09-30T09:04:07.268Z,96.07
2018-09-30T09:07:11.672Z,94.08
2018-09-30T09:10:15.963Z,92.66
2018-09-30T09:13:20.267Z,90.89
2018-09-30T09:16:24.650Z,90.34
2018-09-30T09:19:28.941Z,91.03
2018-09-30T09:22:33.418Z,91.00
2018-09-30T09:25:37.852Z,92.14
2018-09-30T09:28:42.229Z,92.48
2018-09-30T09:31:46.620Z,92.77
2018-09-30T09:34:50.899Z,93.23
2018-09-30T09:37:55.181Z,93.75
2018-09-30T09:40:59.497Z,94.52
2018-09-30T09:44:03.813Z,94.87
2018-09-30T09:47:08.108Z,95.37
2018-09-30T09:50:12.430Z,95.28
2018-09-30T09:53:16.718Z,95.33
2018-09-30T09:56:21.185Z,95.59
2018-09-30T09:59:25.565Z,95.85
2018-09-30T10:02:29.811Z,96.42
2018-09-30T10:05:34.120Z,96.91
2018-09-30T10:08:38.432Z,96.86
2018-09-30T10:11:42.675Z,96.64
2018-09-30T10:14:47.004Z,95.78
2018-09-30T10:17:51.327Z,93.85
2018-09-30T10:20:55.676Z,90.15
2018-09-30T10:23:59.956Z,87.46
2018-09-30T10:27:04.251Z,87.12
2018-09-30T10:30:08.579Z,87.15
2018-09-30T10:33:12.819Z,85.49
2018-09-30T10:36:17.122Z,84.33
2018-09-30T10:39:21.654Z,84.52
2018-09-30T10:42:25.773Z,82.84
2018-09-30T10:45:30.098Z,83.78
2018-09-30T10:48:34.428Z,84.29
2018-09-30T10:51:38.730Z,85.48
2018-09-30T10:54:43.069Z,83.25
2018-09-30T10:57:47.400Z,82.60
2018-09-30T11:00:52.427Z,82.79
2018-09-30T11:03:56.704Z,82.15
2018-09-30T11:07:01.311Z,82.40
2018-09-30T11:10:05.718Z,81.32
2018-09-30T11:13:09.983Z,81.05
2018-09-30T11:16:14.303Z,82.17
2018-09-30T11:19:18.623Z,80.97
2018-09-30T11:22:23.011Z,80.04
2018-09-30T11:25:27.261Z,79.79
2018-09-30T11:28:31.620Z,80.57
2018-09-30T11:31:35.898Z,78.86
2018-09-30T11:34:40.253Z,78.09
2018-09-30T11:37:44.541Z,76.37
2018-09-30T11:40:48.898Z,74.80
2018-09-30T11:43:53.322Z,74.65
2018-09-30T11:46:57.613Z,74.84
2018-09-30T11:50:01.946Z,72.68
2018-09-30T11:53:06.233Z,73.35
2018-09-30T11:56:11.795Z,74.36
2018-09-30T11:59:17.473Z,74.03
2018-09-30T12:02:21.845Z,74.19
2018-09-30T12:05:26.112Z,74.12
2018-09-30T12:08:30.564Z,73.26
2018-09-30T12:11:34.880Z,70.69
2018-09-30T12:14:39.188Z,70.81
2018-09-30T12:17:43.472Z,69.54
2018-09-30T12:20:48.115Z,69.10
2018-09-30T12:23:52.417Z,68.40
2018-09-30T12:26:56.702Z,67.01
2018-09-30T12:30:01.013Z,66.79
2018-09-30T12:33:05.318Z,64.67
2018-09-30T12:36:09.630Z,64.65
2018-09-30T12:39:13.976Z,65.21
2018-09-30T12:42:18.378Z,65.53
2018-09-30T12:45:22.639Z,63.17
2018-09-30T12:48:26.931Z,62.51
2018-09-30T12:51:31.512Z,62.77
2018-09-30T12:54:35.824Z,61.70
2018-09-30T12:57:40.112Z,58.58
2018-09-30T13:00:44.413Z,59.41
2018-09-30T13:03:48.701Z,59.88
2018-09-30T13:06:53.060Z,60.84
2018-09-30T13:09:57.399Z,59.27
2018-09-30T13:13:01.710Z,60.45
2018-09-30T13:16:06.076Z,59.96
2018-09-30T13:19:10.444Z,58.75
2018-09-30T13:22:14.785Z,60.13
2018-09-30T13:25:19.123Z,59.25
2018-09-30T13:28:23.511Z,61.74
2018-09-30T13:31:27.835Z,62.00
2018-09-30T13:34:32.120Z,62.40
2018-09-30T13:37:36.460Z,64.27
2018-09-30T13:40:40.835Z,62.63
2018-09-30T13:43:45.094Z,63.26
2018-09-30T13:46:49.442Z,61.32
2018-09-30T13:49:53.742Z,61.74
2018-09-30T13:52:58.106Z,61.02
2018-09-30T13:56:02.443Z,61.79
2018-09-30T13:59:06.842Z,61.09
2018-09-30T14:02:11.172Z,63.36
2018-09-30T14:05:15.486Z,64.89
2018-09-30T14:08:19.788Z,65.86
2018-09-30T14:11:24.072Z,66.21
2018-09-30T14:14:28.445Z,67.66
2018-09-30T14:17:32.756Z,68.85
2018-09-30T14:20:37.043Z,69.97
2018-09-30T14:23:41.407Z,71.07
2018-09-30T14:26:45.882Z,70.38
2018-09-30T14:29:50.297Z,71.41
2018-09-30T14:32:54.709Z,71.53
2018-09-30T14:35:59.094Z,72.61
2018-09-30T14:39:04.777Z,72.63
2018-09-30T14:42:09.184Z,74.13
2018-09-30T14:45:13.519Z,75.04
2018-09-30T14:48:17.863Z,75.75
2018-09-30T14:51:22.240Z,76.85
2018-09-30T14:54:26.625Z,76.61
2018-09-30T14:57:30.979Z,78.16
2018-09-30T15:00:35.313Z,78.24
2018-09-30T15:03:39.621Z,78.71
2018-09-30T15:06:43.945Z,79.49
2018-09-30T15:09:48.309Z,79.52
2018-09-30T15:12:52.602Z,79.64
2018-09-30T15:15:56.884Z,80.24
2018-09-30T15:19:01.244Z,80.54
2018-09-30T15:22:05.585Z,79.78
2018-09-30T15:25:09.886Z,80.23
2018-09-30T15:28:14.207Z,81.06
2018-09-30T15:31:18.526Z,80.71
2018-09-30T15:34:22.792Z,81.33
2018-09-30T15:37:27.086Z,80.93
2018-09-30T15:40:31.366Z,81.29
2018-09-30T15:43:35.837Z,80.78
2018-09-30T15:46:40.107Z,81.03
2018-09-30T15:49:44.437Z,81.59
2018-09-30T15:52:48.717Z,81.47
2018-09-30T15:55:53.005Z,80.26
2018-09-30T15:58:57.300Z,80.59
2018-09-30T16:02:01.622Z,81.35
2018-09-30T16:05:06.234Z,81.89
2018-09-30T16:08:10.602Z,81.96
2018-09-30T16:11:14.884Z,81.45
2018-09-30T16:14:19.197Z,82.59
2018-09-30T16:17:23.578Z,82.79
2018-09-30T16:20:27.979Z,84.00
2018-09-30T16:23:32.313Z,87.12
2018-09-30T16:26:36.688Z,88.62
2018-09-30T16:29:41.064Z,90.19
2018-09-30T16:32:45.403Z,91.01
2018-09-30T16:35:49.761Z,92.00
2018-09-30T16:38:54.141Z,93.13
2018-09-30T16:41:58.479Z,94.22
2018-09-30T16:45:02.919Z,94.71
2018-09-30T16:48:07.274Z,95.13
2018-09-30T16:51:11.653Z,96.18
2018-09-30T16:54:16.035Z,96.76
2018-09-30T16:57:20.385Z,96.70
2018-09-30T17:00:27.844Z,96.59
2018-09-30T17:03:32.298Z,97.52
2018-09-30T17:06:36.594Z,98.12
2018-09-30T17:09:41.026Z,99.17
2018-09-30T17:12:45.379Z,99.96
2018-09-30T17:15:49.761Z,100.00
2018-09-30T17:18:54.160Z,100.00
2018-09-30T17:21:58.495Z,100.00
2018-09-30T17:25:02.845Z,100.00
2018-09-30T17:28:07.762Z,100.00
2018-09-30T17:31:12.260Z,100.00
2018-09-30T17:34:16.844Z,100.00
2018-09-30T17:37:21.318Z,100.00
2018-09-30T17:40:25.768Z,100.00
2018-09-30T17:43:30.254Z,100.00
2018-09-30T17:46:34.621Z,100.00
2018-09-30T17:49:39.203Z,100.00
2018-09-30T17:52:43.600Z,100.00
2018-09-30T17:55:48.363Z,100.00
2018-09-30T17:58:52.789Z,100.00
2018-09-30T18:01:57.548Z,100.00
2018-09-30T18:05:01.944Z,100.00
2018-09-30T18:08:06.554Z,100.00
2018-09-30T18:11:11.189Z,100.00
2018-09-30T18:14:16.273Z,100.00
2018-09-30T18:17:23.086Z,100.00
2018-09-30T18:20:27.922Z,100.00
2018-09-30T18:23:32.693Z,100.00
2018-09-30T18:26:37.443Z,100.00
2018-09-30T18:29:42.324Z,100.00
2018-09-30T18:32:47.146Z,100.00
2018-09-30T18:35:51.932Z,100.00
2018-09-30T18:38:56.697Z,100.00
2018-09-30T18:42:01.374Z,100.00
2018-09-30T18:45:06.263Z,100.00
2018-09-30T18:48:11.511Z,100.00
2018-09-30T18:51:16.230Z,100.00
2018-09-30T18:54:20.984Z,100.00
2018-09-30T18:57:26.717Z,100.00
2018-09-30T19:00:32.193Z,100.00
2018-09-30T19:03:36.999Z,100.00
2018-09-30T19:06:41.818Z,100.00
2018-09-30T19:09:46.609Z,100.00
2018-09-30T19:12:51.300Z,100.00
2018-09-30T19:15:56.065Z,100.00
2018-09-30T19:19:00.745Z,100.00
2018-09-30T19:22:05.530Z,100.00
2018-09-30T19:25:10.171Z,100.00
2018-09-30T19:28:15.032Z,100.00
2018-09-30T19:31:20.357Z,100.00
2018-09-30T19:34:25.259Z,100.00
2018-09-30T19:37:30.027Z,100.00
2018-09-30T19:40:34.852Z,100.00
2018-09-30T19:43:39.600Z,100.00
2018-09-30T19:46:44.232Z,100.00
2018-09-30T19:49:48.922Z,100.00
2018-09-30T19:52:53.562Z,100.00
2018-09-30T19:55:58.356Z,100.00
2018-09-30T19:59:03.062Z,100.00
2018-09-30T20:02:08.085Z,100.00
2018-09-30T20:05:12.625Z,100.00
2018-09-30T20:08:17.151Z,100.00
2018-09-30T20:11:21.449Z,100.00
2018-09-30T20:14:25.866Z,100.00
2018-09-30T20:17:30.234Z,100.00
2018-09-30T20:20:34.618Z,100.00
2018-09-30T20:23:39.003Z,100.00
2018-09-30T20:26:43.445Z,100.00
2018-09-30T20:29:47.836Z,100.00
2018-09-30T20:32:52.176Z,100.00
2018-09-30T20:35:56.474Z,100.00
2018-09-30T20:39:00.818Z,100.00
2018-09-30T20:42:05.158Z,100.00
2018-09-30T20:45:09.541Z,100.00
2018-09-30T20:48:13.893Z,100.00
2018-09-30T20:51:18.163Z,100.00
2018-09-30T20:54:22.666Z,100.00
2018-09-30T20:57:27.054Z,100.00
2018-09-30T21:00:31.490Z,100.00
2018-09-30T21:03:35.888Z,100.00
2018-09-30T21:06:41.598Z,100.00
2018-09-30T21:09:46.025Z,100.00
2018-09-30T21:12:50.402Z,100.00
2018-09-30T21:15:54.886Z,100.00
2018-09-30T21:18:59.263Z,100.00
2018-09-30T21:22:03.563Z,100.00
2018-09-30T21:25:08.024Z,100.00
2018-09-30T21:28:12.422Z,100.00
2018-09-30T21:31:16.710Z,100.00
2018-09-30T21:34:21.218Z,100.00
2018-09-30T21:37:25.857Z,100.00
2018-09-30T21:40:30.194Z,100.00
2018-09-30T21:43:34.540Z,100.00
2018-09-30T21:46:39.309Z,100.00
2018-09-30T21:49:43.691Z,100.00
2018-09-30T21:52:48.108Z,100.00
2018-09-30T21:55:53.312Z,100.00
2018-09-30T21:58:58.546Z,100.00
2018-09-30T22:02:03.641Z,100.00
2018-09-30T22:05:08.014Z,100.00
2018-09-30T22:08:12.695Z,100.00
2018-09-30T22:11:17.021Z,100.00
2018-09-30T22:14:21.349Z,100.00
2018-09-30T22:17:25.661Z,100.00
2018-09-30T22:20:29.999Z,100.00
2018-09-30T22:23:34.412Z,100.00
2018-09-30T22:26:38.808Z,100.00
2018-09-30T22:29:43.123Z,100.00
2018-09-30T22:32:47.617Z,100.00
2018-09-30T22:35:51.902Z,100.00
2018-09-30T22:38:56.190Z,100.00
2018-09-30T22:42:00.478Z,100.00
2018-09-30T22:45:05.106Z,100.00
2018-09-30T22:48:09.501Z,100.00
2018-09-30T22:51:13.843Z,100.00
2018-09-30T22:54:18.119Z,100.00
2018-09-30T22:57:22.482Z,100.00
2018-09-30T23:00:26.918Z,100.00
2018-09-30T23:03:31.322Z,100.00
2018-09-30T23:06:35.653Z,100.00
2018-09-30T23:09:40.029Z,100.00
2018-09-30T23:12:44.362Z,100.00
2018-09-30T23:15:48.640Z,100.00
2018-09-30T23:18:53.139Z,100.00
2018-09-30T23:21:57.673Z,100.00
2018-09-30T23:25:03.154Z,100.00
2018-09-30T23:28:07.457Z,100.00
2018-09-30T23:31:11.816Z,100.00
2018-09-30T23:34:16.132Z,100.00
2018-09-30T23:37:20.482Z,100.00
2018-09-30T23:40:24.895Z,100.00
2018-09-30T23:43:29.150Z,100.00
2018-09-30T23:46:33.676Z,100.00
2018-09-30T23:49:37.944Z,100.00
2018-09-30T23:52:42.267Z,100.00
2018-09-30T23:55:46.576Z,100.00
2018-09-30T23:58:51.008Z,100.00
